sensor_id;sensor_type;location;lat;lon;timestamp;P1;durP1;ratioP1;P2;durP2;ratioP2
1384;SDS011;686;51.080;13.716;2022-07-05T00:01:58;3.80;;;3.40;;
1384;SDS011;686;51.080;13.716;2022-07-05T00:04:24;6.30;;;3.07;;
1384;SDS011;686;51.080;13.716;2022-07-05T00:06:50;5.30;;;3.97;;
1384;SDS011;686;51.080;13.716;2022-07-05T00:09:34;4.37;;;3.00;;
1384;SDS011;686;51.080;13.716;2022-07-05T00:12:00;3.70;;;3.20;;
1384;SDS011;686;51.080;13.716;2022-07-05T00:14:26;3.83;;;3.30;;
1384;SDS011;686;51.080;13.716;2022-07-05T00:16:52;3.00;;;2.73;;
1384;SDS011;686;51.080;13.716;2022-07-05T00:19:18;5.97;;;3.03;;
1384;SDS011;686;51.080;13.716;2022-07-05T00:21:44;4.30;;;3.90;;
1384;SDS011;686;51.080;13.716;2022-07-05T00:24:10;3.20;;;2.90;;
1384;SDS011;686;51.080;13.716;2022-07-05T00:26:35;4.03;;;2.70;;
1384;SDS011;686;51.080;13.716;2022-07-05T00:29:01;4.73;;;2.60;;
1384;SDS011;686;51.080;13.716;2022-07-05T00:31:27;6.60;;;3.17;;
1384;SDS011;686;51.080;13.716;2022-07-05T00:33:52;4.30;;;3.10;;
1384;SDS011;686;51.080;13.716;2022-07-05T00:36:18;3.67;;;2.67;;
1384;SDS011;686;51.080;13.716;2022-07-05T00:38:44;6.10;;;3.70;;
1384;SDS011;686;51.080;13.716;2022-07-05T00:41:09;8.40;;;2.93;;
1384;SDS011;686;51.080;13.716;2022-07-05T00:43:35;4.30;;;3.33;;
1384;SDS011;686;51.080;13.716;2022-07-05T00:46:01;4.17;;;2.90;;
1384;SDS011;686;51.080;13.716;2022-07-05T00:48:27;5.93;;;2.60;;
1384;SDS011;686;51.080;13.716;2022-07-05T00:50:53;3.30;;;3.00;;
1384;SDS011;686;51.080;13.716;2022-07-05T00:53:18;2.70;;;2.50;;
1384;SDS011;686;51.080;13.716;2022-07-05T00:55:44;2.70;;;2.50;;
1384;SDS011;686;51.080;13.716;2022-07-05T00:58:10;3.13;;;2.83;;
1384;SDS011;686;51.080;13.716;2022-07-05T01:00:37;3.20;;;2.90;;
1384;SDS011;686;51.080;13.716;2022-07-05T01:03:02;3.90;;;3.40;;
1384;SDS011;686;51.080;13.716;2022-07-05T01:05:29;6.37;;;3.50;;
1384;SDS011;686;51.080;13.716;2022-07-05T01:07:56;4.00;;;3.00;;
1384;SDS011;686;51.080;13.716;2022-07-05T01:10:25;5.90;;;3.07;;
1384;SDS011;686;51.080;13.716;2022-07-05T01:12:51;3.83;;;3.10;;
1384;SDS011;686;51.080;13.716;2022-07-05T01:15:19;5.13;;;3.37;;
1384;SDS011;686;51.080;13.716;2022-07-05T01:17:46;5.47;;;2.80;;
1384;SDS011;686;51.080;13.716;2022-07-05T01:20:11;3.00;;;2.20;;
1384;SDS011;686;51.080;13.716;2022-07-05T01:22:56;4.97;;;2.70;;
1384;SDS011;686;51.080;13.716;2022-07-05T01:25:27;5.70;;;2.60;;
1384;SDS011;686;51.080;13.716;2022-07-05T01:27:55;3.40;;;2.90;;
1384;SDS011;686;51.080;13.716;2022-07-05T01:30:22;3.10;;;2.73;;
1384;SDS011;686;51.080;13.716;2022-07-05T01:32:48;3.10;;;2.90;;
1384;SDS011;686;51.080;13.716;2022-07-05T01:35:15;3.00;;;2.80;;
1384;SDS011;686;51.080;13.716;2022-07-05T01:37:49;4.83;;;3.30;;
1384;SDS011;686;51.080;13.716;2022-07-05T01:40:15;2.63;;;2.40;;
1384;SDS011;686;51.080;13.716;2022-07-05T01:42:42;3.37;;;2.57;;
1384;SDS011;686;51.080;13.716;2022-07-05T01:45:09;3.40;;;2.60;;
1384;SDS011;686;51.080;13.716;2022-07-05T01:47:44;3.43;;;2.50;;
1384;SDS011;686;51.080;13.716;2022-07-05T01:50:11;8.23;;;2.70;;
1384;SDS011;686;51.080;13.716;2022-07-05T01:52:42;10.90;;;3.43;;
1384;SDS011;686;51.080;13.716;2022-07-05T01:55:11;5.23;;;2.97;;
1384;SDS011;686;51.080;13.716;2022-07-05T01:57:38;4.03;;;2.93;;
1384;SDS011;686;51.080;13.716;2022-07-05T02:00:04;3.13;;;2.83;;
1384;SDS011;686;51.080;13.716;2022-07-05T02:02:30;6.10;;;3.60;;
1384;SDS011;686;51.080;13.716;2022-07-05T02:04:56;5.70;;;3.33;;
1384;SDS011;686;51.080;13.716;2022-07-05T02:07:21;5.27;;;3.27;;
1384;SDS011;686;51.080;13.716;2022-07-05T02:09:47;3.17;;;2.90;;
1384;SDS011;686;51.080;13.716;2022-07-05T02:12:13;5.60;;;3.60;;
1384;SDS011;686;51.080;13.716;2022-07-05T02:14:39;5.90;;;3.60;;
1384;SDS011;686;51.080;13.716;2022-07-05T02:17:04;5.73;;;3.33;;
1384;SDS011;686;51.080;13.716;2022-07-05T02:19:30;9.97;;;3.73;;
1384;SDS011;686;51.080;13.716;2022-07-05T02:21:56;3.37;;;3.17;;
1384;SDS011;686;51.080;13.716;2022-07-05T02:24:22;4.90;;;2.93;;
1384;SDS011;686;51.080;13.716;2022-07-05T02:26:48;3.57;;;3.13;;
1384;SDS011;686;51.080;13.716;2022-07-05T02:29:14;4.07;;;2.67;;
1384;SDS011;686;51.080;13.716;2022-07-05T02:31:40;4.40;;;3.30;;
1384;SDS011;686;51.080;13.716;2022-07-05T02:34:06;3.60;;;3.20;;
1384;SDS011;686;51.080;13.716;2022-07-05T02:36:31;4.60;;;2.97;;
1384;SDS011;686;51.080;13.716;2022-07-05T02:38:57;3.30;;;3.10;;
1384;SDS011;686;51.080;13.716;2022-07-05T02:41:23;4.87;;;3.70;;
1384;SDS011;686;51.080;13.716;2022-07-05T02:43:49;4.87;;;3.20;;
1384;SDS011;686;51.080;13.716;2022-07-05T02:46:14;4.80;;;3.30;;
1384;SDS011;686;51.080;13.716;2022-07-05T02:48:40;9.30;;;3.47;;
1384;SDS011;686;51.080;13.716;2022-07-05T02:51:06;5.13;;;3.27;;
1384;SDS011;686;51.080;13.716;2022-07-05T02:53:32;8.10;;;4.63;;
1384;SDS011;686;51.080;13.716;2022-07-05T02:55:59;4.57;;;3.67;;
1384;SDS011;686;51.080;13.716;2022-07-05T02:58:25;5.47;;;3.70;;
1384;SDS011;686;51.080;13.716;2022-07-05T03:00:50;4.20;;;3.80;;
1384;SDS011;686;51.080;13.716;2022-07-05T03:03:16;5.47;;;3.03;;
1384;SDS011;686;51.080;13.716;2022-07-05T03:05:42;6.10;;;3.17;;
1384;SDS011;686;51.080;13.716;2022-07-05T03:08:08;5.77;;;3.57;;
1384;SDS011;686;51.080;13.716;2022-07-05T03:10:34;3.87;;;3.20;;
1384;SDS011;686;51.080;13.716;2022-07-05T03:13:01;6.03;;;4.27;;
1384;SDS011;686;51.080;13.716;2022-07-05T03:15:26;6.97;;;3.17;;
1384;SDS011;686;51.080;13.716;2022-07-05T03:17:52;3.33;;;3.03;;
1384;SDS011;686;51.080;13.716;2022-07-05T03:20:18;5.60;;;3.80;;
1384;SDS011;686;51.080;13.716;2022-07-05T03:22:44;4.17;;;3.37;;
1384;SDS011;686;51.080;13.716;2022-07-05T03:25:09;4.40;;;4.00;;
1384;SDS011;686;51.080;13.716;2022-07-05T03:27:35;6.47;;;4.00;;
1384;SDS011;686;51.080;13.716;2022-07-05T03:30:02;5.70;;;3.57;;
1384;SDS011;686;51.080;13.716;2022-07-05T03:32:29;4.87;;;4.37;;
1384;SDS011;686;51.080;13.716;2022-07-05T03:34:55;4.93;;;4.43;;
1384;SDS011;686;51.080;13.716;2022-07-05T03:37:20;5.47;;;3.67;;
1384;SDS011;686;51.080;13.716;2022-07-05T03:39:46;5.40;;;3.80;;
1384;SDS011;686;51.080;13.716;2022-07-05T03:42:12;9.70;;;3.67;;
1384;SDS011;686;51.080;13.716;2022-07-05T03:44:38;3.17;;;2.87;;
1384;SDS011;686;51.080;13.716;2022-07-05T03:47:03;4.33;;;3.97;;
1384;SDS011;686;51.080;13.716;2022-07-05T03:49:29;7.03;;;4.27;;
1384;SDS011;686;51.080;13.716;2022-07-05T03:51:55;8.07;;;4.30;;
1384;SDS011;686;51.080;13.716;2022-07-05T03:54:21;9.03;;;4.47;;
1384;SDS011;686;51.080;13.716;2022-07-05T03:56:46;6.07;;;3.67;;
1384;SDS011;686;51.080;13.716;2022-07-05T03:59:12;10.73;;;4.50;;
1384;SDS011;686;51.080;13.716;2022-07-05T04:01:38;6.07;;;4.20;;
1384;SDS011;686;51.080;13.716;2022-07-05T04:04:04;6.43;;;3.80;;
1384;SDS011;686;51.080;13.716;2022-07-05T04:06:29;5.07;;;3.77;;
1384;SDS011;686;51.080;13.716;2022-07-05T04:08:55;5.00;;;3.90;;
1384;SDS011;686;51.080;13.716;2022-07-05T04:11:21;8.03;;;4.00;;
1384;SDS011;686;51.080;13.716;2022-07-05T04:13:47;4.17;;;3.67;;
1384;SDS011;686;51.080;13.716;2022-07-05T04:16:12;5.80;;;3.97;;
1384;SDS011;686;51.080;13.716;2022-07-05T04:18:38;5.37;;;3.77;;
1384;SDS011;686;51.080;13.716;2022-07-05T04:21:04;4.70;;;4.30;;
1384;SDS011;686;51.080;13.716;2022-07-05T04:23:30;5.03;;;4.30;;
1384;SDS011;686;51.080;13.716;2022-07-05T04:25:56;6.53;;;4.37;;
1384;SDS011;686;51.080;13.716;2022-07-05T04:28:22;5.10;;;4.13;;
1384;SDS011;686;51.080;13.716;2022-07-05T04:30:48;5.67;;;4.40;;
1384;SDS011;686;51.080;13.716;2022-07-05T04:33:14;4.70;;;4.30;;
1384;SDS011;686;51.080;13.716;2022-07-05T04:35:39;5.93;;;4.47;;
1384;SDS011;686;51.080;13.716;2022-07-05T04:38:05;4.90;;;4.40;;
1384;SDS011;686;51.080;13.716;2022-07-05T04:40:31;4.87;;;4.37;;
1384;SDS011;686;51.080;13.716;2022-07-05T04:42:57;6.27;;;4.27;;
1384;SDS011;686;51.080;13.716;2022-07-05T04:45:22;5.37;;;4.00;;
1384;SDS011;686;51.080;13.716;2022-07-05T04:47:48;4.80;;;4.40;;
1384;SDS011;686;51.080;13.716;2022-07-05T04:50:14;3.97;;;3.50;;
1384;SDS011;686;51.080;13.716;2022-07-05T04:52:39;6.30;;;4.40;;
1384;SDS011;686;51.080;13.716;2022-07-05T04:55:05;10.17;;;4.60;;
1384;SDS011;686;51.080;13.716;2022-07-05T04:57:36;4.83;;;4.00;;
1384;SDS011;686;51.080;13.716;2022-07-05T05:00:06;6.57;;;4.57;;
1384;SDS011;686;51.080;13.716;2022-07-05T05:02:36;5.57;;;4.50;;
1384;SDS011;686;51.080;13.716;2022-07-05T05:05:02;4.53;;;3.80;;
1384;SDS011;686;51.080;13.716;2022-07-05T05:07:28;8.33;;;4.13;;
1384;SDS011;686;51.080;13.716;2022-07-05T05:09:54;4.30;;;3.90;;
1384;SDS011;686;51.080;13.716;2022-07-05T05:12:20;7.77;;;4.27;;
1384;SDS011;686;51.080;13.716;2022-07-05T05:14:46;10.47;;;4.17;;
1384;SDS011;686;51.080;13.716;2022-07-05T05:17:12;5.87;;;4.60;;
1384;SDS011;686;51.080;13.716;2022-07-05T05:19:38;11.83;;;4.77;;
1384;SDS011;686;51.080;13.716;2022-07-05T05:22:03;6.70;;;4.60;;
1384;SDS011;686;51.080;13.716;2022-07-05T05:24:29;8.77;;;4.97;;
1384;SDS011;686;51.080;13.716;2022-07-05T05:26:55;7.03;;;3.80;;
1384;SDS011;686;51.080;13.716;2022-07-05T05:29:21;6.67;;;3.77;;
1384;SDS011;686;51.080;13.716;2022-07-05T05:31:47;5.47;;;3.47;;
1384;SDS011;686;51.080;13.716;2022-07-05T05:34:12;3.97;;;3.57;;
1384;SDS011;686;51.080;13.716;2022-07-05T05:36:38;4.83;;;3.33;;
1384;SDS011;686;51.080;13.716;2022-07-05T05:39:04;6.83;;;3.40;;
1384;SDS011;686;51.080;13.716;2022-07-05T05:41:30;7.40;;;3.60;;
1384;SDS011;686;51.080;13.716;2022-07-05T05:43:56;4.20;;;3.23;;
1384;SDS011;686;51.080;13.716;2022-07-05T05:46:24;5.93;;;3.57;;
1384;SDS011;686;51.080;13.716;2022-07-05T05:48:50;6.63;;;3.33;;
1384;SDS011;686;51.080;13.716;2022-07-05T05:51:16;6.07;;;2.90;;
1384;SDS011;686;51.080;13.716;2022-07-05T05:53:41;7.13;;;3.30;;
1384;SDS011;686;51.080;13.716;2022-07-05T05:56:10;3.47;;;2.93;;
1384;SDS011;686;51.080;13.716;2022-07-05T05:58:36;3.60;;;3.30;;
1384;SDS011;686;51.080;13.716;2022-07-05T06:01:01;5.17;;;3.30;;
1384;SDS011;686;51.080;13.716;2022-07-05T06:03:27;4.40;;;3.10;;
1384;SDS011;686;51.080;13.716;2022-07-05T06:05:53;3.27;;;2.90;;
1384;SDS011;686;51.080;13.716;2022-07-05T06:08:19;5.17;;;3.17;;
1384;SDS011;686;51.080;13.716;2022-07-05T06:10:45;3.13;;;2.80;;
1384;SDS011;686;51.080;13.716;2022-07-05T06:13:12;4.33;;;2.97;;
1384;SDS011;686;51.080;13.716;2022-07-05T06:15:39;6.93;;;3.17;;
1384;SDS011;686;51.080;13.716;2022-07-05T06:18:09;4.00;;;2.70;;
1384;SDS011;686;51.080;13.716;2022-07-05T06:20:36;6.00;;;2.93;;
1384;SDS011;686;51.080;13.716;2022-07-05T06:23:03;6.30;;;3.90;;
1384;SDS011;686;51.080;13.716;2022-07-05T06:25:30;3.10;;;2.77;;
1384;SDS011;686;51.080;13.716;2022-07-05T06:28:06;7.13;;;3.27;;
1384;SDS011;686;51.080;13.716;2022-07-05T06:30:33;12.67;;;3.80;;
1384;SDS011;686;51.080;13.716;2022-07-05T06:33:01;4.90;;;3.67;;
1384;SDS011;686;51.080;13.716;2022-07-05T06:35:27;4.57;;;3.30;;
1384;SDS011;686;51.080;13.716;2022-07-05T06:38:00;3.20;;;2.90;;
1384;SDS011;686;51.080;13.716;2022-07-05T06:40:35;4.90;;;3.57;;
1384;SDS011;686;51.080;13.716;2022-07-05T06:43:04;6.70;;;4.00;;
1384;SDS011;686;51.080;13.716;2022-07-05T06:45:32;3.03;;;2.33;;
1384;SDS011;686;51.080;13.716;2022-07-05T06:50:32;6.40;;;3.07;;
1384;SDS011;686;51.080;13.716;2022-07-05T06:53:02;2.93;;;2.70;;
1384;SDS011;686;51.080;13.716;2022-07-05T06:55:29;3.07;;;2.87;;
1384;SDS011;686;51.080;13.716;2022-07-05T06:58:04;3.43;;;2.70;;
1384;SDS011;686;51.080;13.716;2022-07-05T07:00:32;4.90;;;2.80;;
1384;SDS011;686;51.080;13.716;2022-07-05T07:02:58;6.97;;;3.20;;
1384;SDS011;686;51.080;13.716;2022-07-05T07:05:24;3.30;;;3.00;;
1384;SDS011;686;51.080;13.716;2022-07-05T07:07:50;10.40;;;3.20;;
1384;SDS011;686;51.080;13.716;2022-07-05T07:10:35;8.50;;;3.23;;
1384;SDS011;686;51.080;13.716;2022-07-05T07:13:01;6.13;;;4.23;;
1384;SDS011;686;51.080;13.716;2022-07-05T07:15:28;5.20;;;3.10;;
1384;SDS011;686;51.080;13.716;2022-07-05T07:17:54;5.60;;;3.00;;
1384;SDS011;686;51.080;13.716;2022-07-05T07:20:20;4.30;;;2.93;;
1384;SDS011;686;51.080;13.716;2022-07-05T07:22:46;6.80;;;2.80;;
1384;SDS011;686;51.080;13.716;2022-07-05T07:25:12;3.90;;;3.13;;
1384;SDS011;686;51.080;13.716;2022-07-05T07:27:44;4.50;;;2.53;;
1384;SDS011;686;51.080;13.716;2022-07-05T07:30:15;5.00;;;2.67;;
1384;SDS011;686;51.080;13.716;2022-07-05T07:32:44;6.60;;;2.30;;
1384;SDS011;686;51.080;13.716;2022-07-05T07:35:10;4.10;;;3.00;;
1384;SDS011;686;51.080;13.716;2022-07-05T07:37:36;3.27;;;2.40;;
1384;SDS011;686;51.080;13.716;2022-07-05T07:40:02;4.93;;;3.37;;
1384;SDS011;686;51.080;13.716;2022-07-05T07:42:32;2.10;;;1.90;;
1384;SDS011;686;51.080;13.716;2022-07-05T07:44:58;3.23;;;2.83;;
1384;SDS011;686;51.080;13.716;2022-07-05T07:47:24;3.93;;;2.07;;
1384;SDS011;686;51.080;13.716;2022-07-05T07:49:50;3.27;;;2.30;;
1384;SDS011;686;51.080;13.716;2022-07-05T07:52:15;2.67;;;2.10;;
1384;SDS011;686;51.080;13.716;2022-07-05T07:54:41;3.17;;;1.97;;
1384;SDS011;686;51.080;13.716;2022-07-05T07:57:07;2.00;;;1.57;;
1384;SDS011;686;51.080;13.716;2022-07-05T07:59:33;4.00;;;2.03;;
1384;SDS011;686;51.080;13.716;2022-07-05T08:01:59;3.37;;;1.80;;
1384;SDS011;686;51.080;13.716;2022-07-05T08:04:25;2.87;;;1.87;;
1384;SDS011;686;51.080;13.716;2022-07-05T08:06:51;3.63;;;1.90;;
1384;SDS011;686;51.080;13.716;2022-07-05T08:09:17;3.57;;;1.90;;
1384;SDS011;686;51.080;13.716;2022-07-05T08:11:44;4.20;;;1.83;;
1384;SDS011;686;51.080;13.716;2022-07-05T08:14:11;2.40;;;1.77;;
1384;SDS011;686;51.080;13.716;2022-07-05T08:16:37;1.80;;;1.70;;
1384;SDS011;686;51.080;13.716;2022-07-05T08:19:03;2.97;;;1.67;;
1384;SDS011;686;51.080;13.716;2022-07-05T08:21:47;1.83;;;1.47;;
1384;SDS011;686;51.080;13.716;2022-07-05T08:24:13;1.67;;;1.47;;
1384;SDS011;686;51.080;13.716;2022-07-05T08:26:39;4.60;;;2.13;;
1384;SDS011;686;51.080;13.716;2022-07-05T08:29:08;1.83;;;1.60;;
1384;SDS011;686;51.080;13.716;2022-07-05T08:31:40;1.63;;;1.53;;
1384;SDS011;686;51.080;13.716;2022-07-05T08:34:08;2.40;;;1.57;;
1384;SDS011;686;51.080;13.716;2022-07-05T08:36:34;3.70;;;1.60;;
1384;SDS011;686;51.080;13.716;2022-07-05T08:39:00;2.70;;;1.57;;
1384;SDS011;686;51.080;13.716;2022-07-05T08:41:26;6.33;;;1.90;;
1384;SDS011;686;51.080;13.716;2022-07-05T08:43:54;4.30;;;1.60;;
1384;SDS011;686;51.080;13.716;2022-07-05T08:46:22;1.50;;;1.40;;
1384;SDS011;686;51.080;13.716;2022-07-05T08:48:51;2.70;;;1.70;;
1384;SDS011;686;51.080;13.716;2022-07-05T08:51:18;2.10;;;1.60;;
1384;SDS011;686;51.080;13.716;2022-07-05T08:53:46;3.30;;;1.50;;
1384;SDS011;686;51.080;13.716;2022-07-05T08:56:13;2.67;;;1.50;;
1384;SDS011;686;51.080;13.716;2022-07-05T08:58:40;4.10;;;1.57;;
1384;SDS011;686;51.080;13.716;2022-07-05T09:01:07;3.20;;;1.70;;
1384;SDS011;686;51.080;13.716;2022-07-05T09:03:38;3.43;;;2.00;;
1384;SDS011;686;51.080;13.716;2022-07-05T09:06:07;5.80;;;1.40;;
1384;SDS011;686;51.080;13.716;2022-07-05T09:08:35;2.00;;;1.50;;
1384;SDS011;686;51.080;13.716;2022-07-05T09:11:08;4.33;;;1.30;;
1384;SDS011;686;51.080;13.716;2022-07-05T09:13:36;1.47;;;1.30;;
1384;SDS011;686;51.080;13.716;2022-07-05T09:16:04;1.90;;;1.30;;
1384;SDS011;686;51.080;13.716;2022-07-05T09:21:15;7.43;;;1.50;;
1384;SDS011;686;51.080;13.716;2022-07-05T09:23:55;3.00;;;1.20;;
1384;SDS011;686;51.080;13.716;2022-07-05T09:28:58;1.60;;;1.50;;
1384;SDS011;686;51.080;13.716;2022-07-05T09:31:28;2.67;;;1.40;;
1384;SDS011;686;51.080;13.716;2022-07-05T09:34:17;3.37;;;2.57;;
1384;SDS011;686;51.080;13.716;2022-07-05T09:36:55;3.80;;;1.80;;
1384;SDS011;686;51.080;13.716;2022-07-05T09:44:53;2.03;;;1.30;;
1384;SDS011;686;51.080;13.716;2022-07-05T09:47:20;2.77;;;1.40;;
1384;SDS011;686;51.080;13.716;2022-07-05T09:49:49;5.87;;;2.47;;
1384;SDS011;686;51.080;13.716;2022-07-05T09:52:29;2.03;;;1.70;;
1384;SDS011;686;51.080;13.716;2022-07-05T09:55:35;2.70;;;1.27;;
1384;SDS011;686;51.080;13.716;2022-07-05T09:57:54;3.23;;;1.87;;
1384;SDS011;686;51.080;13.716;2022-07-05T10:00:21;4.00;;;3.00;;
1384;SDS011;686;51.080;13.716;2022-07-05T10:02:51;7.03;;;1.40;;
1384;SDS011;686;51.080;13.716;2022-07-05T10:05:27;2.60;;;1.40;;
1384;SDS011;686;51.080;13.716;2022-07-05T10:08:00;1.60;;;1.50;;
1384;SDS011;686;51.080;13.716;2022-07-05T10:10:27;4.63;;;2.13;;
1384;SDS011;686;51.080;13.716;2022-07-05T10:13:01;1.53;;;1.43;;
1384;SDS011;686;51.080;13.716;2022-07-05T10:15:31;3.03;;;2.57;;
1384;SDS011;686;51.080;13.716;2022-07-05T10:18:06;3.80;;;1.60;;
1384;SDS011;686;51.080;13.716;2022-07-05T10:23:06;2.77;;;1.43;;
1384;SDS011;686;51.080;13.716;2022-07-05T10:25:37;3.43;;;1.53;;
1384;SDS011;686;51.080;13.716;2022-07-05T10:28:04;1.40;;;1.17;;
1384;SDS011;686;51.080;13.716;2022-07-05T10:30:31;3.90;;;2.03;;
1384;SDS011;686;51.080;13.716;2022-07-05T10:32:58;4.23;;;1.70;;
1384;SDS011;686;51.080;13.716;2022-07-05T10:35:24;1.57;;;1.40;;
1384;SDS011;686;51.080;13.716;2022-07-05T10:37:50;1.40;;;1.30;;
1384;SDS011;686;51.080;13.716;2022-07-05T10:40:16;3.90;;;1.53;;
1384;SDS011;686;51.080;13.716;2022-07-05T10:42:45;1.20;;;1.10;;
1384;SDS011;686;51.080;13.716;2022-07-05T10:45:33;3.57;;;2.30;;
1384;SDS011;686;51.080;13.716;2022-07-05T10:53:22;5.00;;;1.67;;
1384;SDS011;686;51.080;13.716;2022-07-05T10:55:58;3.20;;;1.57;;
1384;SDS011;686;51.080;13.716;2022-07-05T11:03:38;1.90;;;1.30;;
1384;SDS011;686;51.080;13.716;2022-07-05T11:06:05;3.40;;;1.77;;
1384;SDS011;686;51.080;13.716;2022-07-05T11:09:18;2.10;;;1.47;;
1384;SDS011;686;51.080;13.716;2022-07-05T11:11:25;3.00;;;1.77;;
1384;SDS011;686;51.080;13.716;2022-07-05T11:22:24;1.67;;;1.50;;
1384;SDS011;686;51.080;13.716;2022-07-05T11:24:50;3.40;;;1.37;;
1384;SDS011;686;51.080;13.716;2022-07-05T11:27:16;2.63;;;1.50;;
1384;SDS011;686;51.080;13.716;2022-07-05T11:32:12;2.40;;;1.37;;
1384;SDS011;686;51.080;13.716;2022-07-05T11:34:41;1.33;;;1.23;;
1384;SDS011;686;51.080;13.716;2022-07-05T11:37:24;1.43;;;1.30;;
1384;SDS011;686;51.080;13.716;2022-07-05T11:42:57;2.50;;;1.50;;
1384;SDS011;686;51.080;13.716;2022-07-05T11:45:23;1.60;;;1.50;;
1384;SDS011;686;51.080;13.716;2022-07-05T11:47:50;6.80;;;2.40;;
1384;SDS011;686;51.080;13.716;2022-07-05T11:50:24;4.10;;;1.30;;
1384;SDS011;686;51.080;13.716;2022-07-05T11:52:51;1.73;;;1.63;;
1384;SDS011;686;51.080;13.716;2022-07-05T11:55:17;2.73;;;2.00;;
1384;SDS011;686;51.080;13.716;2022-07-05T11:57:50;3.60;;;1.50;;
1384;SDS011;686;51.080;13.716;2022-07-05T12:02:55;1.43;;;1.30;;
1384;SDS011;686;51.080;13.716;2022-07-05T12:05:21;3.00;;;2.03;;
1384;SDS011;686;51.080;13.716;2022-07-05T12:07:50;6.30;;;1.80;;
1384;SDS011;686;51.080;13.716;2022-07-05T12:10:17;2.00;;;1.33;;
1384;SDS011;686;51.080;13.716;2022-07-05T12:13:08;3.80;;;1.30;;
1384;SDS011;686;51.080;13.716;2022-07-05T12:15:35;4.83;;;1.93;;
1384;SDS011;686;51.080;13.716;2022-07-05T12:18:02;1.93;;;1.60;;
1384;SDS011;686;51.080;13.716;2022-07-05T12:20:30;1.47;;;1.20;;
1384;SDS011;686;51.080;13.716;2022-07-05T12:22:57;2.37;;;1.40;;
1384;SDS011;686;51.080;13.716;2022-07-05T12:25:26;1.73;;;1.63;;
1384;SDS011;686;51.080;13.716;2022-07-05T12:27:55;2.00;;;1.40;;
1384;SDS011;686;51.080;13.716;2022-07-05T12:30:22;3.63;;;1.57;;
1384;SDS011;686;51.080;13.716;2022-07-05T12:32:55;5.30;;;1.90;;
1384;SDS011;686;51.080;13.716;2022-07-05T12:37:56;5.50;;;2.07;;
1384;SDS011;686;51.080;13.716;2022-07-05T12:40:27;2.80;;;2.13;;
1384;SDS011;686;51.080;13.716;2022-07-05T12:45:28;2.70;;;1.80;;
1384;SDS011;686;51.080;13.716;2022-07-05T12:47:55;3.50;;;1.40;;
1384;SDS011;686;51.080;13.716;2022-07-05T12:50:26;2.60;;;1.50;;
1384;SDS011;686;51.080;13.716;2022-07-05T12:53:03;2.60;;;1.40;;
1384;SDS011;686;51.080;13.716;2022-07-05T12:55:57;4.77;;;1.67;;
1384;SDS011;686;51.080;13.716;2022-07-05T12:58:50;5.30;;;1.33;;
1384;SDS011;686;51.080;13.716;2022-07-05T13:01:20;1.53;;;1.33;;
1384;SDS011;686;51.080;13.716;2022-07-05T13:06:44;3.47;;;1.50;;
1384;SDS011;686;51.080;13.716;2022-07-05T13:14:51;2.00;;;1.37;;
1384;SDS011;686;51.080;13.716;2022-07-05T13:17:18;4.20;;;1.57;;
1384;SDS011;686;51.080;13.716;2022-07-05T13:19:48;4.53;;;1.40;;
1384;SDS011;686;51.080;13.716;2022-07-05T13:22:15;5.23;;;2.33;;
1384;SDS011;686;51.080;13.716;2022-07-05T13:24:41;5.60;;;2.07;;
1384;SDS011;686;51.080;13.716;2022-07-05T13:27:08;2.80;;;2.20;;
1384;SDS011;686;51.080;13.716;2022-07-05T13:29:35;8.80;;;4.87;;
1384;SDS011;686;51.080;13.716;2022-07-05T13:32:01;1.73;;;1.27;;
1384;SDS011;686;51.080;13.716;2022-07-05T13:34:27;3.83;;;1.30;;
1384;SDS011;686;51.080;13.716;2022-07-05T13:36:54;2.30;;;1.80;;
1384;SDS011;686;51.080;13.716;2022-07-05T13:39:21;1.97;;;1.70;;
1384;SDS011;686;51.080;13.716;2022-07-05T13:41:47;3.70;;;1.47;;
1384;SDS011;686;51.080;13.716;2022-07-05T13:44:14;1.67;;;1.57;;
1384;SDS011;686;51.080;13.716;2022-07-05T13:46:40;1.77;;;1.43;;
1384;SDS011;686;51.080;13.716;2022-07-05T13:49:06;6.33;;;4.93;;
1384;SDS011;686;51.080;13.716;2022-07-05T13:51:32;7.03;;;4.97;;
1384;SDS011;686;51.080;13.716;2022-07-05T13:53:58;1.90;;;1.50;;
1384;SDS011;686;51.080;13.716;2022-07-05T13:56:23;3.13;;;1.60;;
1384;SDS011;686;51.080;13.716;2022-07-05T13:58:51;3.40;;;1.60;;
1384;SDS011;686;51.080;13.716;2022-07-05T14:01:17;2.53;;;1.83;;
1384;SDS011;686;51.080;13.716;2022-07-05T14:03:46;2.60;;;1.60;;
1384;SDS011;686;51.080;13.716;2022-07-05T14:06:11;3.03;;;1.90;;
1384;SDS011;686;51.080;13.716;2022-07-05T14:08:40;3.53;;;2.60;;
1384;SDS011;686;51.080;13.716;2022-07-05T14:11:07;2.97;;;2.50;;
1384;SDS011;686;51.080;13.716;2022-07-05T14:30:06;1.77;;;1.63;;
1384;SDS011;686;51.080;13.716;2022-07-05T14:33:20;9.57;;;2.70;;
1384;SDS011;686;51.080;13.716;2022-07-05T14:36:38;3.70;;;2.57;;
1384;SDS011;686;51.080;13.716;2022-07-05T14:40:21;3.43;;;1.97;;
1384;SDS011;686;51.080;13.716;2022-07-05T14:47:17;2.83;;;1.43;;
1384;SDS011;686;51.080;13.716;2022-07-05T14:53:56;3.73;;;1.97;;
1384;SDS011;686;51.080;13.716;2022-07-05T15:12:37;3.70;;;1.97;;
1384;SDS011;686;51.080;13.716;2022-07-05T15:15:09;1.80;;;1.60;;
1384;SDS011;686;51.080;13.716;2022-07-05T15:18:35;2.97;;;1.73;;
1384;SDS011;686;51.080;13.716;2022-07-05T15:25:53;1.50;;;1.40;;
1384;SDS011;686;51.080;13.716;2022-07-05T15:28:37;4.10;;;1.57;;
1384;SDS011;686;51.080;13.716;2022-07-05T15:35:12;6.17;;;2.40;;
1384;SDS011;686;51.080;13.716;2022-07-05T15:37:51;3.40;;;1.70;;
1384;SDS011;686;51.080;13.716;2022-07-05T15:41:10;4.97;;;2.60;;
1384;SDS011;686;51.080;13.716;2022-07-05T15:44:07;3.07;;;2.10;;
1384;SDS011;686;51.080;13.716;2022-07-05T16:02:58;3.30;;;1.40;;
1384;SDS011;686;51.080;13.716;2022-07-05T16:27:04;3.20;;;1.63;;
1384;SDS011;686;51.080;13.716;2022-07-05T16:30:41;2.33;;;1.40;;
1384;SDS011;686;51.080;13.716;2022-07-05T16:34:41;3.37;;;1.60;;
1384;SDS011;686;51.080;13.716;2022-07-05T16:42:04;3.33;;;2.47;;
1384;SDS011;686;51.080;13.716;2022-07-05T16:49:28;2.90;;;2.47;;
1384;SDS011;686;51.080;13.716;2022-07-05T17:08:23;3.00;;;1.90;;
1384;SDS011;686;51.080;13.716;2022-07-05T17:10:52;4.77;;;2.13;;
1384;SDS011;686;51.080;13.716;2022-07-05T17:13:32;3.93;;;2.00;;
1384;SDS011;686;51.080;13.716;2022-07-05T17:15:58;4.73;;;1.90;;
1384;SDS011;686;51.080;13.716;2022-07-05T17:18:24;3.47;;;2.60;;
1384;SDS011;686;51.080;13.716;2022-07-05T17:20:53;2.60;;;2.30;;
1384;SDS011;686;51.080;13.716;2022-07-05T17:23:45;3.97;;;2.17;;
1384;SDS011;686;51.080;13.716;2022-07-05T17:33:35;3.03;;;1.60;;
1384;SDS011;686;51.080;13.716;2022-07-05T17:43:12;4.27;;;1.80;;
1384;SDS011;686;51.080;13.716;2022-07-05T17:50:08;2.40;;;1.87;;
1384;SDS011;686;51.080;13.716;2022-07-05T17:57:36;4.13;;;2.20;;
1384;SDS011;686;51.080;13.716;2022-07-05T18:23:31;2.93;;;1.97;;
1384;SDS011;686;51.080;13.716;2022-07-05T18:27:03;3.43;;;2.20;;
1384;SDS011;686;51.080;13.716;2022-07-05T18:30:16;4.40;;;2.43;;
1384;SDS011;686;51.080;13.716;2022-07-05T18:46:47;2.90;;;2.70;;
1384;SDS011;686;51.080;13.716;2022-07-05T18:49:13;4.97;;;2.90;;
1384;SDS011;686;51.080;13.716;2022-07-05T18:51:39;4.80;;;2.93;;
1384;SDS011;686;51.080;13.716;2022-07-05T18:54:05;3.20;;;2.70;;
1384;SDS011;686;51.080;13.716;2022-07-05T18:56:31;5.37;;;2.30;;
1384;SDS011;686;51.080;13.716;2022-07-05T18:58:57;5.73;;;2.70;;
1384;SDS011;686;51.080;13.716;2022-07-05T19:01:23;3.03;;;2.40;;
1384;SDS011;686;51.080;13.716;2022-07-05T19:03:50;4.80;;;3.67;;
1384;SDS011;686;51.080;13.716;2022-07-05T19:06:20;11.97;;;7.17;;
1384;SDS011;686;51.080;13.716;2022-07-05T19:09:05;5.50;;;3.03;;
1384;SDS011;686;51.080;13.716;2022-07-05T19:11:49;5.23;;;3.23;;
1384;SDS011;686;51.080;13.716;2022-07-05T19:14:33;4.90;;;3.30;;
1384;SDS011;686;51.080;13.716;2022-07-05T19:16:59;8.40;;;3.17;;
1384;SDS011;686;51.080;13.716;2022-07-05T19:19:25;2.93;;;2.67;;
1384;SDS011;686;51.080;13.716;2022-07-05T19:21:51;7.27;;;3.37;;
1384;SDS011;686;51.080;13.716;2022-07-05T19:24:16;4.03;;;3.30;;